createdAt,value
2023-03-23T16:02:30.900Z,15.97
2023-03-23T16:07:36.456Z,15.89
2023-03-23T16:12:41.829Z,15.82
2023-03-23T16:17:47.540Z,15.73
2023-03-23T16:22:53.849Z,15.68
2023-03-23T16:27:59.650Z,15.59
2023-03-23T16:33:05.725Z,15.47
2023-03-23T16:38:16.466Z,15.33
2023-03-23T16:43:22.235Z,15.23
2023-03-23T16:48:28.017Z,15.10
2023-03-23T16:53:33.693Z,14.98
2023-03-23T16:58:39.414Z,14.88
2023-03-23T17:03:45.680Z,14.76
2023-03-23T17:08:51.609Z,14.65
2023-03-23T17:13:57.303Z,14.52
2023-03-23T17:19:03.004Z,14.40
2023-03-23T17:24:09.610Z,14.26
2023-03-23T17:29:15.496Z,14.14
2023-03-23T17:34:21.252Z,14.07
2023-03-23T17:39:28.060Z,13.98
2023-03-23T17:44:33.763Z,13.88
2023-03-23T17:49:39.660Z,13.79
2023-03-23T17:54:45.566Z,13.71
2023-03-23T17:59:51.255Z,13.64
2023-03-23T18:04:59.799Z,13.60
2023-03-23T18:10:12.320Z,13.57
2023-03-23T18:15:18.076Z,13.55
2023-03-23T18:20:23.831Z,13.51
2023-03-23T18:25:29.685Z,13.48
2023-03-23T18:30:36.442Z,13.45
2023-03-23T18:35:43.857Z,13.47
2023-03-23T18:40:51.090Z,13.51
2023-03-23T18:46:00.118Z,13.51
2023-03-23T18:51:07.282Z,13.50
2023-03-23T18:56:16.128Z,13.47
2023-03-23T19:01:22.626Z,13.43
2023-03-23T19:06:30.015Z,13.35
2023-03-23T19:11:35.680Z,13.28
2023-03-23T19:16:41.397Z,13.23
2023-03-23T19:21:47.403Z,13.18
2023-03-23T19:26:53.121Z,13.09
2023-03-23T19:31:59.477Z,13.06
2023-03-23T19:37:10.191Z,13.07
2023-03-23T19:42:18.593Z,13.04
2023-03-23T19:47:24.415Z,12.99
2023-03-23T19:52:30.175Z,12.98
2023-03-23T19:57:37.339Z,12.95
2023-03-23T20:02:42.791Z,12.98
2023-03-23T20:07:51.628Z,12.96
2023-03-23T20:12:57.867Z,12.90
2023-03-23T20:18:04.804Z,12.87
2023-03-23T20:23:11.560Z,12.88
2023-03-23T20:28:17.069Z,12.94
2023-03-23T20:33:22.567Z,13.00
2023-03-23T20:38:30.560Z,13.06
2023-03-23T20:43:37.741Z,13.14
2023-03-23T20:48:43.973Z,13.16
2023-03-23T20:53:50.280Z,13.20
2023-03-23T20:58:56.243Z,13.26
2023-03-23T21:04:03.158Z,13.30
2023-03-23T21:09:10.187Z,13.30
2023-03-23T21:14:16.402Z,13.29
2023-03-23T21:19:22.294Z,13.28
2023-03-23T21:24:32.785Z,13.28
2023-03-23T21:29:38.706Z,13.29
2023-03-23T21:34:46.651Z,13.30
2023-03-23T21:39:52.707Z,13.30
2023-03-23T21:45:03.070Z,13.34
2023-03-23T21:50:12.479Z,13.38
2023-03-23T21:55:18.502Z,13.42
2023-03-23T22:00:24.316Z,13.39
2023-03-23T22:05:30.746Z,13.29
2023-03-23T22:10:39.792Z,13.17
2023-03-23T22:15:46.792Z,13.04
2023-03-23T22:20:53.287Z,12.84
2023-03-23T22:25:58.871Z,12.62
2023-03-23T22:31:06.409Z,12.40
2023-03-23T22:36:13.154Z,12.26
2023-03-23T22:41:21.691Z,12.19
2023-03-23T22:46:27.444Z,12.15
2023-03-23T22:51:33.646Z,12.15
2023-03-23T22:56:39.432Z,12.14
2023-03-23T23:01:45.294Z,12.11
2023-03-23T23:07:12.816Z,12.05
2023-03-23T23:12:20.159Z,12.00
2023-03-23T23:17:34.856Z,11.96
2023-03-23T23:22:43.118Z,11.97
2023-03-23T23:27:49.543Z,12.02
2023-03-23T23:32:56.868Z,12.04
2023-03-23T23:38:03.584Z,12.02
2023-03-23T23:43:10.486Z,11.93
2023-03-23T23:48:16.130Z,11.81
2023-03-23T23:53:22.702Z,11.69
2023-03-23T23:58:28.277Z,11.63
